Saturday, October 25, 2014, 3:37 PM EDT

KRDG, Reading Regional Airport

Location: Reading, PA, United States Lat: 40.367
Local Time: 3:37 PM EDT (19:37 GMT) Lon: -75.967
Time Zone: US/Eastern Elev: 344 ft

Show me the last for .
Show Decoded

2014-10-25 14:54 METAR KRDG 251854Z AUTO 26013KT 10SM CLR 20/06 A2974 RMK AO2 SLP076 T02000061 =
2014-10-25 13:54 METAR KRDG 251754Z AUTO 24010G18KT 10SM CLR 20/07 A2977 RMK AO2 SLP085 T02000067
                 10200 20056 58034 =
2014-10-25 12:54 METAR KRDG 251654Z AUTO 24012KT 10SM CLR 19/06 A2980 RMK AO2 SLP095 T01890061 =
2014-10-25 11:54 METAR KRDG 251554Z AUTO 26010KT 10SM CLR 18/06 A2984 RMK AO2 SLP110 T01830056 =
2014-10-25 10:54 METAR KRDG 251454Z AUTO 27008KT 10SM CLR 17/05 A2987 RMK AO2 SLP119 T01670050
                 58014 =
2014-10-25 09:54 METAR KRDG 251354Z AUTO 00000KT 10SM CLR 14/06 A2990 RMK AO2 SLP127 T01440056 =
2014-10-25 08:54 METAR KRDG 251254Z AUTO 00000KT 10SM CLR 10/06 A2991 =
2014-10-25 07:54 METAR KRDG 251154Z AUTO 00000KT 9SM CLR 05/03 A2991 =
2014-10-25 06:54 METAR KRDG 251054Z AUTO 00000KT 10SM CLR 06/03 A2991 RMK AO2 SLP133 T00610028 =
2014-10-25 05:54 METAR KRDG 250954Z AUTO 00000KT 10SM CLR 07/03 A2990 RMK AO2 SLP129 T00670028 =
2014-10-25 04:54 METAR KRDG 250854Z AUTO 00000KT 10SM CLR 07/02 A2991 RMK AO2 SLP132 T00670022
                 58001 =
2014-10-25 03:54 METAR KRDG 250754Z AUTO 31004KT 10SM CLR 10/02 A2991 RMK AO2 SLP132 T01000022 =
2014-10-25 02:54 METAR KRDG 250654Z AUTO 31003KT 10SM CLR 07/02 A2991 RMK AO2 SLP132 T00720022 =
2014-10-25 01:54 METAR KRDG 250554Z AUTO 27003KT 10SM CLR 11/03 A2991 RMK AO2 SLP132 T01110028
                 10161 20106 51005 =
2014-10-25 00:54 METAR KRDG 250454Z AUTO 28005KT 10SM CLR 11/02 A2991 RMK AO2 SLP132 T01110022
                 402110106 =
2014-10-24 23:54 METAR KRDG 250354Z AUTO 28004KT 10SM CLR 12/02 A2990 RMK AO2 SLP128 T01170022 =
2014-10-24 22:54 METAR KRDG 250254Z AUTO 29005KT 10SM CLR 13/02 A2989 =
2014-10-24 21:54 METAR KRDG 250154Z AUTO 29008KT 10SM CLR 14/02 A2988 RMK AO2 SLP123 T01440022 =
2014-10-24 20:54 METAR KRDG 250054Z AUTO 27007KT 10SM CLR 14/03 A2988 RMK AO2 SLP121 T01440028 =
2014-10-24 19:54 METAR KRDG 242354Z AUTO 28009KT 10SM CLR 16/01 A2986 RMK AO2 SLP116 T01610011
                 10211 20161 53015 =
2014-10-24 18:54 METAR KRDG 242254Z 28007KT 10SM CLR 17/01 A2985 RMK AO2 SLP111 T01670011 =
2014-10-24 17:54 METAR KRDG 242154Z 29010KT 10SM CLR 18/02 A2983 RMK AO2 SLP105 T01830022 =
2014-10-24 16:54 METAR KRDG 242054Z 30010KT 10SM CLR 19/05 A2982 RMK AO2 SLP101 T01940050 55009 =
2014-10-24 15:54 METAR KRDG 241954Z 32017G21KT 10SM CLR 20/05 A2981 RMK AO2 SLP100 T02000050 =

Support USWX by starting your Amazon purchase here.